createdAt,value
2018-05-11T00:01:58.437Z,11.00
2018-05-11T00:07:02.171Z,10.90
2018-05-11T00:12:09.708Z,10.90
2018-05-11T00:17:13.070Z,10.80
2018-05-11T00:22:16.381Z,10.70
2018-05-11T00:27:19.736Z,10.70
2018-05-11T00:32:23.190Z,10.80
2018-05-11T00:37:26.590Z,10.70
2018-05-11T00:42:29.903Z,10.80
2018-05-11T00:47:35.484Z,10.60
2018-05-11T00:52:50.041Z,10.60
2018-05-11T00:57:53.449Z,10.60
2018-05-11T01:02:57.265Z,10.50
2018-05-11T01:08:01.706Z,10.50
2018-05-11T01:13:05.366Z,10.60
2018-05-11T01:18:08.592Z,10.60
2018-05-11T01:23:12.037Z,10.60
2018-05-11T01:28:15.652Z,10.70
2018-05-11T01:33:20.438Z,10.60
2018-05-11T01:38:23.676Z,10.60
2018-05-11T01:43:27.118Z,10.50
2018-05-11T01:53:45.520Z,10.40
2018-05-11T01:58:48.912Z,10.30
2018-05-11T02:03:53.563Z,9.90
2018-05-11T02:08:57.191Z,9.70
2018-05-11T02:14:00.488Z,9.70
2018-05-11T02:19:03.714Z,9.60
2018-05-11T02:24:07.210Z,9.40
2018-05-11T02:29:10.414Z,9.20
2018-05-11T02:34:13.847Z,9.10
2018-05-11T02:39:17.160Z,8.90
2018-05-11T02:44:20.522Z,8.80
2018-05-11T02:49:24.423Z,8.70
2018-05-11T02:54:27.698Z,8.70
2018-05-11T02:59:30.933Z,8.60
2018-05-11T03:04:35.194Z,8.40
2018-05-11T03:09:38.816Z,8.40
2018-05-11T03:14:54.126Z,8.50
2018-05-11T03:19:57.393Z,8.50
2018-05-11T03:25:01.241Z,8.50
2018-05-11T03:30:04.519Z,8.50
2018-05-11T03:35:07.834Z,8.50
2018-05-11T03:40:11.440Z,8.50
2018-05-11T03:45:14.738Z,8.50
2018-05-11T03:50:17.985Z,8.50
2018-05-11T03:55:21.463Z,8.40
2018-05-11T04:00:24.774Z,8.40
2018-05-11T04:05:39.831Z,8.50
2018-05-11T04:10:43.995Z,8.50
2018-05-11T04:15:47.601Z,8.50
2018-05-11T04:20:51.336Z,8.40
2018-05-11T04:25:54.555Z,8.40
2018-05-11T04:30:57.857Z,8.40
2018-05-11T04:36:01.148Z,8.60
2018-05-11T04:41:04.789Z,9.10
2018-05-11T04:46:08.016Z,9.10
2018-05-11T04:51:11.254Z,9.20
2018-05-11T04:56:14.511Z,9.30
2018-05-11T05:01:17.724Z,9.40
2018-05-11T05:06:20.939Z,9.50
2018-05-11T05:11:24.170Z,9.70
2018-05-11T05:16:27.383Z,9.70
2018-05-11T05:21:30.621Z,9.90
2018-05-11T05:26:33.844Z,10.10
2018-05-11T05:31:37.105Z,10.30
2018-05-11T05:36:40.359Z,10.40
2018-05-11T05:41:43.596Z,10.60
2018-05-11T05:46:46.822Z,10.60
2018-05-11T05:51:50.143Z,10.70
2018-05-11T05:56:53.771Z,11.10
2018-05-11T06:01:57.050Z,11.10
2018-05-11T06:07:00.344Z,11.30
2018-05-11T06:12:03.622Z,11.50
2018-05-11T06:17:06.883Z,11.70
2018-05-11T06:22:10.531Z,12.10
2018-05-11T06:27:13.796Z,12.10
2018-05-11T06:32:17.396Z,12.30
2018-05-11T06:37:21.115Z,12.60
2018-05-11T06:42:24.352Z,12.60
2018-05-11T06:47:28.049Z,13.30
2018-05-11T06:52:31.299Z,13.30
2018-05-11T06:57:34.535Z,13.40
2018-05-11T07:02:37.869Z,13.70
2018-05-11T07:07:41.140Z,13.80
2018-05-11T07:12:44.423Z,14.00
2018-05-11T07:17:47.669Z,14.30
2018-05-11T07:22:50.951Z,14.30
2018-05-11T07:27:54.184Z,14.50
2018-05-11T07:32:57.416Z,14.70
2018-05-11T07:38:01.826Z,14.80
2018-05-11T07:43:05.145Z,14.80
2018-05-11T07:48:08.457Z,15.10
2018-05-11T07:53:11.678Z,14.80
2018-05-11T07:58:15.305Z,15.00
2018-05-11T08:03:18.520Z,15.00
2018-05-11T08:08:21.891Z,15.10
2018-05-11T08:13:25.116Z,15.20
2018-05-11T08:18:28.743Z,16.10
2018-05-11T08:23:31.970Z,16.10
2018-05-11T08:28:35.328Z,16.20
2018-05-11T08:33:38.571Z,16.50
2018-05-11T08:38:41.813Z,16.50
2018-05-11T08:43:45.075Z,16.60
2018-05-11T08:48:48.372Z,16.80
2018-05-11T08:53:51.987Z,17.00
2018-05-11T08:58:55.689Z,16.70
2018-05-11T09:03:59.441Z,17.00
2018-05-11T09:09:02.668Z,16.90
2018-05-11T09:14:05.955Z,17.00
2018-05-11T09:19:09.192Z,17.40
2018-05-11T09:24:12.440Z,17.80
2018-05-11T09:29:16.065Z,17.80
2018-05-11T09:34:19.685Z,18.30
2018-05-11T09:39:22.939Z,18.30
2018-05-11T09:44:26.196Z,18.60
2018-05-11T09:49:29.519Z,18.80
2018-05-11T09:54:32.693Z,18.60
2018-05-11T09:59:36.335Z,18.50
2018-05-11T10:04:39.622Z,18.50
2018-05-11T10:09:43.256Z,18.40
2018-05-11T10:14:46.505Z,18.40
2018-05-11T10:19:49.732Z,18.90
2018-05-11T10:24:52.963Z,19.40
2018-05-11T10:29:56.672Z,19.60
2018-05-11T10:35:00.294Z,19.80
2018-05-11T10:40:03.943Z,20.20
2018-05-11T10:45:07.167Z,20.20
2018-05-11T10:50:10.381Z,20.30
2018-05-11T10:55:13.744Z,20.20
2018-05-11T11:00:16.970Z,20.00
2018-05-11T11:05:20.190Z,19.70
2018-05-11T11:10:23.398Z,20.40
2018-05-11T11:15:26.620Z,20.00
2018-05-11T11:20:29.854Z,20.80
2018-05-11T11:25:33.487Z,21.30
2018-05-11T11:30:36.715Z,21.30
2018-05-11T11:35:40.141Z,20.60
2018-05-11T11:40:43.487Z,21.30
2018-05-11T11:45:47.137Z,22.50
2018-05-11T11:50:50.376Z,22.50
2018-05-11T11:55:53.705Z,24.20
2018-05-11T12:00:56.921Z,24.00
2018-05-11T12:06:00.645Z,26.00
2018-05-11T12:11:04.286Z,26.50
2018-05-11T12:16:07.511Z,26.50
2018-05-11T12:21:10.734Z,28.00
2018-05-11T12:26:14.946Z,27.90
2018-05-11T12:31:18.163Z,27.90
2018-05-11T12:36:21.506Z,29.20
2018-05-11T12:41:25.217Z,28.10
2018-05-11T12:46:28.931Z,28.90
2018-05-11T12:51:32.164Z,28.90
2018-05-11T12:56:35.413Z,28.90
2018-05-11T13:01:39.064Z,27.60
2018-05-11T13:06:42.782Z,29.20
2018-05-11T13:11:46.512Z,29.40
2018-05-11T13:16:50.150Z,29.00
2018-05-11T13:21:53.375Z,29.00
2018-05-11T13:26:56.602Z,28.50
2018-05-11T13:32:00.437Z,28.90
2018-05-11T13:37:03.693Z,29.60
2018-05-11T13:42:07.002Z,30.10
2018-05-11T13:47:10.236Z,27.30
2018-05-11T13:52:13.453Z,24.60
2018-05-11T13:57:16.682Z,24.00
2018-05-11T14:02:20.378Z,24.80
2018-05-11T14:07:23.603Z,24.80
2018-05-11T14:12:27.499Z,24.10
2018-05-11T14:17:30.749Z,24.10
2018-05-11T14:22:33.976Z,24.70
2018-05-11T14:27:37.441Z,25.60
2018-05-11T14:32:41.080Z,29.10
2018-05-11T14:37:44.553Z,29.10
2018-05-11T14:42:47.771Z,31.50
2018-05-11T14:47:51.104Z,32.60
2018-05-11T14:52:54.326Z,31.80
2018-05-11T14:57:57.604Z,30.90
2018-05-11T15:03:01.309Z,32.50
2018-05-11T15:08:06.465Z,31.00
2018-05-11T15:13:10.297Z,30.70
2018-05-11T15:18:13.922Z,31.20
2018-05-11T15:23:17.157Z,31.20
2018-05-11T15:28:20.390Z,32.90
2018-05-11T15:33:23.736Z,31.00
2018-05-11T15:38:27.355Z,33.00
2018-05-11T15:43:30.622Z,33.00
2018-05-11T15:48:34.433Z,31.70
2018-05-11T15:53:37.659Z,31.50
2018-05-11T15:58:40.968Z,31.50
2018-05-11T16:03:44.378Z,31.50
2018-05-11T16:08:48.017Z,31.00
2018-05-11T16:13:51.299Z,31.00
2018-05-11T16:18:54.536Z,30.90
2018-05-11T16:23:57.790Z,31.70
2018-05-11T16:29:01.015Z,32.20
2018-05-11T16:34:04.389Z,32.30
2018-05-11T16:39:07.754Z,32.20
2018-05-11T16:44:11.371Z,33.20
2018-05-11T16:49:14.593Z,33.30
2018-05-11T16:54:17.831Z,33.40
2018-05-11T16:59:21.180Z,32.40
2018-05-11T17:04:24.445Z,31.90
2018-05-11T17:09:27.784Z,32.10
2018-05-11T17:14:31.597Z,32.20
2018-05-11T17:19:35.312Z,31.70
2018-05-11T17:24:38.951Z,30.70
2018-05-11T17:29:42.188Z,30.70
2018-05-11T17:34:45.541Z,27.60
2018-05-11T17:39:48.949Z,24.60
2018-05-11T17:44:52.359Z,23.00
2018-05-11T17:49:55.946Z,22.50
2018-05-11T17:54:59.224Z,22.00
2018-05-11T18:00:02.461Z,21.70
2018-05-11T18:05:05.911Z,21.40
2018-05-11T18:10:09.656Z,20.90
2018-05-11T18:15:13.253Z,20.90
2018-05-11T18:20:16.842Z,20.70
2018-05-11T18:25:20.476Z,20.30
2018-05-11T18:30:24.099Z,19.70
2018-05-11T18:35:27.329Z,19.70
2018-05-11T18:40:30.575Z,19.30
2018-05-11T18:45:33.821Z,19.00
2018-05-11T18:50:37.073Z,18.60
2018-05-11T18:55:40.323Z,18.00
2018-05-11T19:00:43.972Z,17.60
2018-05-11T19:05:47.206Z,17.60
2018-05-11T19:10:50.445Z,17.60
2018-05-11T19:15:54.826Z,17.10
2018-05-11T19:20:58.068Z,17.10
2018-05-11T19:26:01.700Z,16.80
2018-05-11T19:31:04.960Z,16.80
2018-05-11T19:36:08.206Z,16.50
2018-05-11T19:41:11.606Z,16.50
2018-05-11T19:46:15.015Z,16.30
2018-05-11T19:51:18.639Z,16.00
2018-05-11T19:56:22.251Z,15.90
2018-05-11T20:01:25.962Z,15.90
2018-05-11T20:06:29.244Z,15.90
2018-05-11T20:11:32.574Z,15.90
2018-05-11T20:16:36.377Z,15.90
2018-05-11T20:21:39.597Z,15.90
2018-05-11T20:26:43.245Z,15.70
2018-05-11T20:31:46.509Z,15.70
2018-05-11T20:36:49.735Z,15.70
2018-05-11T20:41:53.007Z,15.70
2018-05-11T20:46:56.286Z,15.70
2018-05-11T20:51:59.500Z,15.50
2018-05-11T20:57:03.889Z,15.30
2018-05-11T21:02:07.561Z,15.10
2018-05-11T21:07:10.821Z,15.10
2018-05-11T21:12:14.438Z,14.80
2018-05-11T21:17:18.165Z,14.50
2018-05-11T21:22:21.419Z,14.50
2018-05-11T21:27:24.853Z,14.20
2018-05-11T21:32:28.493Z,14.20
2018-05-11T21:37:32.185Z,14.40
2018-05-11T21:42:35.507Z,14.40
2018-05-11T21:47:39.328Z,14.40
2018-05-11T21:52:43.164Z,14.40
2018-05-11T21:57:46.923Z,14.40
2018-05-11T22:02:50.420Z,14.40
2018-05-11T22:07:56.006Z,14.30
2018-05-11T22:12:59.291Z,14.40
2018-05-11T22:18:02.689Z,14.20
2018-05-11T22:23:05.973Z,14.10
2018-05-11T22:28:09.201Z,14.00
2018-05-11T22:33:12.569Z,13.80
2018-05-11T22:38:16.517Z,13.80
2018-05-11T22:43:19.765Z,13.70
2018-05-11T22:48:24.327Z,13.70
2018-05-11T22:53:28.106Z,13.80
2018-05-11T22:58:31.384Z,13.80
2018-05-11T23:03:34.853Z,13.40
2018-05-11T23:08:38.075Z,13.00
2018-05-11T23:13:41.718Z,13.20
2018-05-11T23:18:45.624Z,13.30
2018-05-11T23:23:49.431Z,13.40
2018-05-11T23:28:53.050Z,13.00
2018-05-11T23:33:56.684Z,13.00
2018-05-11T23:38:59.964Z,13.00
2018-05-11T23:44:04.310Z,12.90
2018-05-11T23:49:08.645Z,12.50
2018-05-11T23:54:12.450Z,12.40
2018-05-11T23:59:16.164Z,12.50
